createdAt,value
2023-05-06T00:02:05.923Z,4.90
2023-05-06T00:04:34.151Z,5.75
2023-05-06T00:07:02.321Z,5.07
2023-05-06T00:09:31.491Z,4.43
2023-05-06T00:11:59.312Z,4.28
2023-05-06T00:14:27.003Z,4.82
2023-05-06T00:16:54.698Z,4.90
2023-05-06T00:19:22.574Z,4.40
2023-05-06T00:21:50.336Z,4.10
2023-05-06T00:24:18.078Z,4.50
2023-05-06T00:26:47.094Z,4.95
2023-05-06T00:29:14.878Z,4.85
2023-05-06T00:31:42.642Z,5.50
2023-05-06T00:34:10.397Z,4.68
2023-05-06T00:36:38.199Z,5.35
2023-05-06T00:39:06.474Z,5.88
2023-05-06T00:41:34.393Z,5.68
2023-05-06T00:44:03.491Z,5.05
2023-05-06T00:46:31.340Z,5.00
2023-05-06T00:48:59.366Z,5.50
2023-05-06T00:51:27.659Z,4.95
2023-05-06T00:53:56.632Z,5.00
2023-05-06T00:56:24.767Z,4.55
2023-05-06T00:58:52.730Z,4.65
2023-05-06T01:01:22.751Z,5.03
2023-05-06T01:03:51.931Z,4.68
2023-05-06T01:06:26.179Z,5.13
2023-05-06T01:08:59.496Z,5.40
2023-05-06T01:11:35.188Z,4.88
2023-05-06T01:14:09.009Z,5.50
2023-05-06T01:16:42.075Z,5.28
2023-05-06T01:19:13.552Z,4.70
2023-05-06T01:21:45.293Z,4.60
2023-05-06T01:24:14.451Z,4.70
2023-05-06T01:26:42.842Z,4.47
2023-05-06T01:29:12.330Z,4.95
2023-05-06T01:31:51.126Z,5.15
2023-05-06T01:34:27.534Z,5.18
2023-05-06T01:37:06.583Z,4.55
2023-05-06T01:39:35.940Z,5.18
2023-05-06T01:42:04.483Z,5.25
2023-05-06T01:44:34.961Z,4.32
2023-05-06T01:47:02.933Z,5.28
2023-05-06T01:49:31.402Z,4.85
2023-05-06T01:51:59.108Z,5.20
2023-05-06T01:54:26.880Z,5.05
2023-05-06T01:56:55.972Z,5.20
2023-05-06T01:59:23.652Z,4.53
2023-05-06T02:01:51.447Z,5.40
2023-05-06T02:04:19.261Z,4.70
2023-05-06T02:06:47.070Z,5.53
2023-05-06T02:09:14.819Z,5.28
2023-05-06T02:11:42.661Z,5.80
2023-05-06T02:14:11.703Z,5.43
2023-05-06T02:16:39.549Z,6.15
2023-05-06T02:19:07.384Z,5.70
2023-05-06T02:21:35.131Z,4.82
2023-05-06T02:24:02.849Z,5.93
2023-05-06T02:26:30.588Z,5.38
2023-05-06T02:28:58.282Z,5.85
2023-05-06T02:31:27.464Z,5.88
2023-05-06T02:33:55.353Z,6.60
2023-05-06T02:36:23.155Z,5.82
2023-05-06T02:38:50.911Z,6.00
2023-05-06T02:41:18.624Z,5.90
2023-05-06T02:43:46.343Z,6.07
2023-05-06T02:46:14.068Z,6.18
2023-05-06T02:48:43.306Z,6.28
2023-05-06T02:51:11.399Z,6.30
2023-05-06T02:53:39.096Z,6.32
2023-05-06T02:56:07.262Z,6.35
2023-05-06T02:58:34.979Z,6.70
2023-05-06T03:01:02.835Z,6.78
2023-05-06T03:03:30.636Z,7.53
2023-05-06T03:05:59.802Z,7.10
2023-05-06T03:08:27.593Z,6.60
2023-05-06T03:10:55.345Z,7.47
2023-05-06T03:13:23.289Z,7.07
2023-05-06T03:15:53.724Z,7.10
2023-05-06T03:18:21.605Z,7.57
2023-05-06T03:20:50.107Z,7.00
2023-05-06T03:23:19.182Z,7.10
2023-05-06T03:25:46.873Z,6.70
2023-05-06T03:28:14.602Z,6.70
2023-05-06T03:30:42.435Z,6.28
2023-05-06T03:33:10.227Z,6.30
2023-05-06T03:35:37.970Z,7.05
2023-05-06T03:38:05.720Z,6.25
2023-05-06T03:40:34.925Z,6.63
2023-05-06T03:43:02.800Z,6.95
2023-05-06T03:45:30.610Z,6.03
2023-05-06T03:47:58.669Z,6.22
2023-05-06T03:50:26.797Z,6.30
2023-05-06T03:52:54.670Z,6.93
2023-05-06T03:55:22.403Z,6.93
2023-05-06T03:57:51.454Z,6.00
2023-05-06T04:00:19.219Z,8.85
2023-05-06T04:02:46.948Z,10.32
2023-05-06T04:05:14.749Z,6.50
2023-05-06T04:07:42.581Z,6.90
2023-05-06T04:10:10.988Z,6.88
2023-05-06T04:12:38.798Z,6.10
2023-05-06T04:15:09.566Z,7.18
2023-05-06T04:17:37.515Z,6.93
2023-05-06T04:20:11.122Z,7.57
2023-05-06T04:22:39.056Z,7.70
2023-05-06T04:25:08.387Z,8.45
2023-05-06T04:27:36.364Z,7.80
2023-05-06T04:30:04.212Z,7.97
2023-05-06T04:32:33.925Z,7.60
2023-05-06T04:35:01.753Z,7.97
2023-05-06T04:37:30.809Z,8.23
2023-05-06T04:39:58.615Z,8.05
2023-05-06T04:42:26.414Z,8.75
2023-05-06T04:44:54.200Z,8.48
2023-05-06T04:47:22.021Z,7.93
2023-05-06T04:49:51.144Z,8.35
2023-05-06T04:52:18.844Z,7.13
2023-05-06T04:54:46.598Z,6.82
2023-05-06T04:57:14.350Z,8.00
2023-05-06T04:59:42.461Z,7.85
2023-05-06T05:02:10.241Z,7.75
2023-05-06T05:04:38.270Z,9.10
2023-05-06T05:07:07.844Z,8.65
2023-05-06T05:09:35.860Z,8.02
2023-05-06T05:12:03.712Z,8.43
2023-05-06T05:14:31.519Z,7.72
2023-05-06T05:16:59.326Z,8.38
2023-05-06T05:19:27.126Z,8.00
2023-05-06T05:21:54.824Z,8.23
2023-05-06T05:24:23.991Z,8.73
2023-05-06T05:26:51.681Z,8.82
2023-05-06T05:29:19.457Z,8.50
2023-05-06T05:31:47.241Z,8.55
2023-05-06T05:34:15.128Z,8.35
2023-05-06T05:36:42.880Z,7.85
2023-05-06T05:39:10.683Z,7.82
2023-05-06T05:41:39.732Z,7.38
2023-05-06T05:44:07.778Z,7.72
2023-05-06T05:46:35.911Z,8.30
2023-05-06T05:49:03.679Z,7.35
2023-05-06T05:51:31.373Z,7.72
2023-05-06T05:53:59.138Z,8.70
2023-05-06T05:56:27.022Z,7.35
2023-05-06T05:58:56.288Z,7.07
2023-05-06T06:01:24.064Z,7.65
2023-05-06T06:03:52.326Z,7.38
2023-05-06T06:06:20.325Z,8.20
2023-05-06T06:08:48.122Z,7.75
2023-05-06T06:11:15.918Z,6.93
2023-05-06T06:13:43.764Z,7.45
2023-05-06T06:16:13.155Z,7.80
2023-05-06T06:18:40.987Z,7.25
2023-05-06T06:21:08.712Z,7.43
2023-05-06T06:23:36.482Z,7.70
2023-05-06T06:26:04.597Z,6.05
2023-05-06T06:28:32.367Z,6.88
2023-05-06T06:31:00.224Z,6.70
2023-05-06T06:33:29.376Z,6.20
2023-05-06T06:35:59.204Z,6.47
2023-05-06T06:38:27.096Z,6.07
2023-05-06T06:40:54.904Z,6.68
2023-05-06T06:43:23.738Z,6.90
2023-05-06T06:45:51.970Z,6.20
2023-05-06T06:48:20.268Z,5.22
2023-05-06T06:50:49.313Z,4.70
2023-05-06T06:53:18.361Z,5.00
2023-05-06T06:55:46.661Z,4.32
2023-05-06T06:58:14.522Z,4.43
2023-05-06T07:00:42.231Z,4.85
2023-05-06T07:03:09.989Z,5.22
2023-05-06T07:05:37.926Z,5.95
2023-05-06T07:08:07.040Z,5.50
2023-05-06T07:10:35.783Z,4.78
2023-05-06T07:13:03.545Z,4.70
2023-05-06T07:15:31.373Z,4.57
2023-05-06T07:17:59.143Z,5.22
2023-05-06T07:20:27.048Z,4.85
2023-05-06T07:22:54.814Z,5.07
2023-05-06T07:25:23.883Z,4.47
2023-05-06T07:27:51.619Z,4.10
2023-05-06T07:30:22.881Z,4.72
2023-05-06T07:32:51.272Z,4.03
2023-05-06T07:35:19.188Z,4.05
2023-05-06T07:37:47.564Z,3.60
2023-05-06T07:40:15.408Z,3.15
2023-05-06T07:42:44.673Z,4.30
2023-05-06T07:45:12.920Z,3.50
2023-05-06T07:47:40.960Z,3.67
2023-05-06T07:50:10.484Z,4.10
2023-05-06T07:52:38.426Z,5.05
2023-05-06T07:55:09.086Z,3.42
2023-05-06T07:57:37.253Z,3.22
2023-05-06T08:00:09.864Z,2.58
2023-05-06T08:02:44.844Z,2.50
2023-05-06T08:05:14.898Z,2.00
2023-05-06T08:07:45.680Z,2.60
2023-05-06T08:10:15.608Z,2.33
2023-05-06T08:12:45.263Z,2.72
2023-05-06T08:15:16.958Z,2.67
2023-05-06T08:17:46.759Z,2.40
2023-05-06T08:20:16.583Z,2.10
